sensor_id;sensor_type;location;lat;lon;timestamp;P1;durP1;ratioP1;P2;durP2;ratioP2
64789;SDS011;51223;51.816;5.862;2023-06-22T04:46:36;6.18;;;4.03;;
64789;SDS011;51223;51.816;5.862;2023-06-22T04:49:25;7.22;;;4.35;;
64789;SDS011;51223;51.816;5.862;2023-06-22T05:07:36;11.35;;;5.00;;
64789;SDS011;51223;51.816;5.862;2023-06-22T05:10:04;6.55;;;3.92;;
64789;SDS011;51223;51.816;5.862;2023-06-22T05:12:33;5.93;;;3.65;;
64789;SDS011;51223;51.816;5.862;2023-06-22T05:59:04;10.63;;;5.68;;
64789;SDS011;51223;51.816;5.862;2023-06-22T06:01:30;10.55;;;5.88;;
64789;SDS011;51223;51.816;5.862;2023-06-22T06:03:56;8.00;;;5.50;;
64789;SDS011;51223;51.816;5.862;2023-06-22T06:06:22;9.60;;;5.57;;
64789;SDS011;51223;51.816;5.862;2023-06-22T06:08:54;10.18;;;4.95;;
64789;SDS011;51223;51.816;5.862;2023-06-22T07:23:17;12.77;;;5.50;;
64789;SDS011;51223;51.816;5.862;2023-06-22T07:25:42;8.27;;;5.10;;
64789;SDS011;51223;51.816;5.862;2023-06-22T07:28:08;9.20;;;6.13;;
64789;SDS011;51223;51.816;5.862;2023-06-22T07:30:34;6.88;;;4.65;;
64789;SDS011;51223;51.816;5.862;2023-06-22T07:33:00;7.35;;;5.18;;
64789;SDS011;51223;51.816;5.862;2023-06-22T07:35:29;8.63;;;5.82;;
64789;SDS011;51223;51.816;5.862;2023-06-22T07:37:55;8.75;;;5.47;;
64789;SDS011;51223;51.816;5.862;2023-06-22T07:40:21;7.25;;;4.47;;
64789;SDS011;51223;51.816;5.862;2023-06-22T07:42:46;6.10;;;3.78;;
64789;SDS011;51223;51.816;5.862;2023-06-22T07:45:13;8.75;;;6.10;;
64789;SDS011;51223;51.816;5.862;2023-06-22T07:47:39;9.85;;;5.43;;
64789;SDS011;51223;51.816;5.862;2023-06-22T07:50:16;8.13;;;4.88;;
64789;SDS011;51223;51.816;5.862;2023-06-22T07:52:58;7.05;;;3.45;;
64789;SDS011;51223;51.816;5.862;2023-06-22T07:55:24;9.77;;;5.75;;
64789;SDS011;51223;51.816;5.862;2023-06-22T07:57:50;12.90;;;6.88;;
64789;SDS011;51223;51.816;5.862;2023-06-22T08:00:17;9.52;;;6.25;;
64789;SDS011;51223;51.816;5.862;2023-06-22T08:02:44;8.45;;;5.35;;
64789;SDS011;51223;51.816;5.862;2023-06-22T08:05:10;7.78;;;5.28;;
64789;SDS011;51223;51.816;5.862;2023-06-22T08:07:37;9.00;;;6.00;;
64789;SDS011;51223;51.816;5.862;2023-06-22T08:10:03;7.70;;;5.55;;
64789;SDS011;51223;51.816;5.862;2023-06-22T08:12:29;10.65;;;6.90;;
64789;SDS011;51223;51.816;5.862;2023-06-22T08:14:55;8.38;;;6.88;;
64789;SDS011;51223;51.816;5.862;2023-06-22T08:17:25;8.15;;;5.20;;
64789;SDS011;51223;51.816;5.862;2023-06-22T08:19:51;9.70;;;6.53;;
64789;SDS011;51223;51.816;5.862;2023-06-22T08:22:17;8.75;;;6.10;;
64789;SDS011;51223;51.816;5.862;2023-06-22T08:24:46;7.38;;;4.85;;
64789;SDS011;51223;51.816;5.862;2023-06-22T08:27:11;7.78;;;5.47;;
64789;SDS011;51223;51.816;5.862;2023-06-22T08:29:39;5.22;;;3.97;;
64789;SDS011;51223;51.816;5.862;2023-06-22T08:32:04;8.65;;;5.80;;
64789;SDS011;51223;51.816;5.862;2023-06-22T08:34:31;8.23;;;5.07;;
64789;SDS011;51223;51.816;5.862;2023-06-22T08:36:57;8.52;;;6.03;;
64789;SDS011;51223;51.816;5.862;2023-06-22T08:39:22;6.32;;;4.65;;
64789;SDS011;51223;51.816;5.862;2023-06-22T08:41:48;4.50;;;3.15;;
64789;SDS011;51223;51.816;5.862;2023-06-22T08:44:14;9.65;;;5.35;;
64789;SDS011;51223;51.816;5.862;2023-06-22T08:46:41;7.93;;;5.30;;
64789;SDS011;51223;51.816;5.862;2023-06-22T08:49:07;11.98;;;5.70;;
64789;SDS011;51223;51.816;5.862;2023-06-22T08:51:33;9.98;;;5.40;;
64789;SDS011;51223;51.816;5.862;2023-06-22T08:53:59;8.25;;;4.75;;
64789;SDS011;51223;51.816;5.862;2023-06-22T08:56:25;8.95;;;5.97;;
64789;SDS011;51223;51.816;5.862;2023-06-22T08:58:50;6.78;;;4.03;;
64789;SDS011;51223;51.816;5.862;2023-06-22T09:01:16;8.82;;;5.18;;
64789;SDS011;51223;51.816;5.862;2023-06-22T09:03:42;9.23;;;5.15;;
64789;SDS011;51223;51.816;5.862;2023-06-22T09:06:07;9.30;;;5.75;;
64789;SDS011;51223;51.816;5.862;2023-06-22T09:08:35;8.95;;;5.93;;
64789;SDS011;51223;51.816;5.862;2023-06-22T09:11:02;4.43;;;3.65;;
64789;SDS011;51223;51.816;5.862;2023-06-22T09:13:30;11.35;;;5.63;;
64789;SDS011;51223;51.816;5.862;2023-06-22T09:16:00;7.50;;;5.22;;
64789;SDS011;51223;51.816;5.862;2023-06-22T09:18:26;6.90;;;3.83;;
64789;SDS011;51223;51.816;5.862;2023-06-22T09:20:51;5.82;;;3.88;;
64789;SDS011;51223;51.816;5.862;2023-06-22T09:23:17;7.93;;;4.88;;
64789;SDS011;51223;51.816;5.862;2023-06-22T09:25:42;7.57;;;4.75;;
64789;SDS011;51223;51.816;5.862;2023-06-22T09:28:10;5.43;;;4.32;;
64789;SDS011;51223;51.816;5.862;2023-06-22T09:30:35;9.27;;;5.38;;
64789;SDS011;51223;51.816;5.862;2023-06-22T09:33:01;6.18;;;4.40;;
64789;SDS011;51223;51.816;5.862;2023-06-22T09:35:27;7.50;;;4.85;;
64789;SDS011;51223;51.816;5.862;2023-06-22T09:37:53;5.68;;;4.68;;
64789;SDS011;51223;51.816;5.862;2023-06-22T09:40:18;6.65;;;4.57;;
64789;SDS011;51223;51.816;5.862;2023-06-22T09:42:45;7.53;;;3.72;;
64789;SDS011;51223;51.816;5.862;2023-06-22T09:45:11;4.53;;;3.15;;
64789;SDS011;51223;51.816;5.862;2023-06-22T09:47:36;10.38;;;6.00;;
64789;SDS011;51223;51.816;5.862;2023-06-22T09:50:02;4.43;;;3.40;;
64789;SDS011;51223;51.816;5.862;2023-06-22T09:52:28;5.75;;;4.18;;
64789;SDS011;51223;51.816;5.862;2023-06-22T09:54:54;5.95;;;3.80;;
64789;SDS011;51223;51.816;5.862;2023-06-22T09:57:19;7.70;;;5.72;;
64789;SDS011;51223;51.816;5.862;2023-06-22T09:59:45;9.82;;;3.88;;
64789;SDS011;51223;51.816;5.862;2023-06-22T10:02:10;7.00;;;4.70;;
64789;SDS011;51223;51.816;5.862;2023-06-22T10:04:36;5.85;;;3.78;;
64789;SDS011;51223;51.816;5.862;2023-06-22T10:07:02;7.50;;;4.85;;
64789;SDS011;51223;51.816;5.862;2023-06-22T10:09:28;5.20;;;3.67;;
64789;SDS011;51223;51.816;5.862;2023-06-22T10:11:53;3.90;;;1.67;;
64789;SDS011;51223;51.816;5.862;2023-06-22T10:14:19;5.82;;;4.38;;
64789;SDS011;51223;51.816;5.862;2023-06-22T10:16:45;5.88;;;3.80;;
64789;SDS011;51223;51.816;5.862;2023-06-22T10:19:11;5.50;;;3.88;;
64789;SDS011;51223;51.816;5.862;2023-06-22T10:21:36;4.90;;;3.40;;
64789;SDS011;51223;51.816;5.862;2023-06-22T10:24:02;6.30;;;3.47;;
64789;SDS011;51223;51.816;5.862;2023-06-22T10:26:34;4.88;;;3.45;;
64789;SDS011;51223;51.816;5.862;2023-06-22T10:29:00;6.55;;;2.88;;
64789;SDS011;51223;51.816;5.862;2023-06-22T10:31:26;4.60;;;2.60;;
64789;SDS011;51223;51.816;5.862;2023-06-22T10:33:53;8.18;;;4.13;;
64789;SDS011;51223;51.816;5.862;2023-06-22T10:36:19;5.03;;;3.22;;
64789;SDS011;51223;51.816;5.862;2023-06-22T10:38:44;5.38;;;3.08;;
64789;SDS011;51223;51.816;5.862;2023-06-22T10:41:10;6.22;;;3.70;;
64789;SDS011;51223;51.816;5.862;2023-06-22T10:43:36;6.68;;;3.28;;
64789;SDS011;51223;51.816;5.862;2023-06-22T10:46:01;8.32;;;4.43;;
64789;SDS011;51223;51.816;5.862;2023-06-22T10:48:27;5.85;;;3.60;;
64789;SDS011;51223;51.816;5.862;2023-06-22T10:50:53;6.32;;;4.15;;
64789;SDS011;51223;51.816;5.862;2023-06-22T10:53:20;6.18;;;3.40;;
64789;SDS011;51223;51.816;5.862;2023-06-22T10:55:45;4.32;;;2.92;;
64789;SDS011;51223;51.816;5.862;2023-06-22T10:58:11;5.82;;;3.58;;
64789;SDS011;51223;51.816;5.862;2023-06-22T11:00:36;7.47;;;4.20;;
64789;SDS011;51223;51.816;5.862;2023-06-22T11:03:02;7.07;;;3.67;;
64789;SDS011;51223;51.816;5.862;2023-06-22T11:05:28;3.60;;;2.33;;
64789;SDS011;51223;51.816;5.862;2023-06-22T11:07:53;5.28;;;2.97;;
64789;SDS011;51223;51.816;5.862;2023-06-22T11:10:19;2.47;;;1.73;;
64789;SDS011;51223;51.816;5.862;2023-06-22T11:12:44;5.20;;;3.63;;
64789;SDS011;51223;51.816;5.862;2023-06-22T11:15:10;3.33;;;2.47;;
64789;SDS011;51223;51.816;5.862;2023-06-22T11:17:36;2.75;;;2.20;;
64789;SDS011;51223;51.816;5.862;2023-06-22T11:20:01;3.22;;;1.95;;
64789;SDS011;51223;51.816;5.862;2023-06-22T11:22:30;5.70;;;2.80;;
64789;SDS011;51223;51.816;5.862;2023-06-22T11:24:58;5.38;;;3.28;;
64789;SDS011;51223;51.816;5.862;2023-06-22T11:27:24;5.85;;;3.00;;
64789;SDS011;51223;51.816;5.862;2023-06-22T11:29:50;3.65;;;2.97;;
64789;SDS011;51223;51.816;5.862;2023-06-22T11:32:15;4.57;;;2.92;;
64789;SDS011;51223;51.816;5.862;2023-06-22T11:34:41;4.72;;;2.97;;
64789;SDS011;51223;51.816;5.862;2023-06-22T11:37:06;4.97;;;3.67;;
64789;SDS011;51223;51.816;5.862;2023-06-22T11:39:32;4.15;;;2.90;;
64789;SDS011;51223;51.816;5.862;2023-06-22T11:41:58;4.25;;;3.00;;
64789;SDS011;51223;51.816;5.862;2023-06-22T11:44:24;5.55;;;3.90;;
64789;SDS011;51223;51.816;5.862;2023-06-22T11:46:49;7.07;;;4.10;;
64789;SDS011;51223;51.816;5.862;2023-06-22T11:49:15;9.00;;;4.90;;
64789;SDS011;51223;51.816;5.862;2023-06-22T11:51:41;5.38;;;4.13;;
64789;SDS011;51223;51.816;5.862;2023-06-22T11:54:06;9.30;;;5.32;;
64789;SDS011;51223;51.816;5.862;2023-06-22T11:56:32;9.70;;;3.92;;
64789;SDS011;51223;51.816;5.862;2023-06-22T11:58:58;5.00;;;3.05;;
64789;SDS011;51223;51.816;5.862;2023-06-22T12:01:23;9.23;;;5.88;;
64789;SDS011;51223;51.816;5.862;2023-06-22T12:03:49;7.18;;;4.22;;
64789;SDS011;51223;51.816;5.862;2023-06-22T12:06:14;6.78;;;4.50;;
64789;SDS011;51223;51.816;5.862;2023-06-22T12:08:40;7.57;;;4.35;;
64789;SDS011;51223;51.816;5.862;2023-06-22T12:11:06;14.05;;;5.45;;
64789;SDS011;51223;51.816;5.862;2023-06-22T12:13:31;11.15;;;3.97;;
64789;SDS011;51223;51.816;5.862;2023-06-22T12:15:57;9.23;;;4.72;;
64789;SDS011;51223;51.816;5.862;2023-06-22T12:18:22;7.95;;;5.45;;
64789;SDS011;51223;51.816;5.862;2023-06-22T12:20:48;10.75;;;6.30;;
64789;SDS011;51223;51.816;5.862;2023-06-22T12:23:14;5.97;;;4.50;;
64789;SDS011;51223;51.816;5.862;2023-06-22T12:25:40;9.02;;;4.68;;
64789;SDS011;51223;51.816;5.862;2023-06-22T12:28:05;8.50;;;4.97;;
64789;SDS011;51223;51.816;5.862;2023-06-22T12:30:32;8.52;;;5.43;;
64789;SDS011;51223;51.816;5.862;2023-06-22T12:32:58;6.63;;;5.13;;
64789;SDS011;51223;51.816;5.862;2023-06-22T12:35:24;3.70;;;2.38;;
64789;SDS011;51223;51.816;5.862;2023-06-22T12:37:49;6.97;;;4.65;;
64789;SDS011;51223;51.816;5.862;2023-06-22T12:40:15;5.30;;;3.97;;
64789;SDS011;51223;51.816;5.862;2023-06-22T12:42:41;4.65;;;2.75;;
64789;SDS011;51223;51.816;5.862;2023-06-22T12:45:07;5.38;;;2.42;;
64789;SDS011;51223;51.816;5.862;2023-06-22T12:47:33;3.70;;;2.55;;
64789;SDS011;51223;51.816;5.862;2023-06-22T12:49:59;6.05;;;3.65;;
64789;SDS011;51223;51.816;5.862;2023-06-22T12:52:24;6.30;;;3.97;;
64789;SDS011;51223;51.816;5.862;2023-06-22T12:54:50;4.28;;;3.20;;
64789;SDS011;51223;51.816;5.862;2023-06-22T12:57:16;4.05;;;2.67;;
64789;SDS011;51223;51.816;5.862;2023-06-22T12:59:43;4.22;;;2.90;;
64789;SDS011;51223;51.816;5.862;2023-06-22T13:02:08;4.25;;;2.92;;
64789;SDS011;51223;51.816;5.862;2023-06-22T13:04:34;3.33;;;2.80;;
64789;SDS011;51223;51.816;5.862;2023-06-22T13:07:00;4.80;;;2.75;;
64789;SDS011;51223;51.816;5.862;2023-06-22T13:09:25;8.57;;;4.03;;
64789;SDS011;51223;51.816;5.862;2023-06-22T13:11:51;3.33;;;2.60;;
64789;SDS011;51223;51.816;5.862;2023-06-22T13:14:18;7.82;;;4.60;;
64789;SDS011;51223;51.816;5.862;2023-06-22T13:16:43;4.93;;;3.72;;
64789;SDS011;51223;51.816;5.862;2023-06-22T13:19:09;9.68;;;4.80;;
64789;SDS011;51223;51.816;5.862;2023-06-22T13:21:35;3.75;;;2.58;;
64789;SDS011;51223;51.816;5.862;2023-06-22T13:24:00;4.25;;;2.40;;
64789;SDS011;51223;51.816;5.862;2023-06-22T13:26:26;6.18;;;3.80;;
64789;SDS011;51223;51.816;5.862;2023-06-22T13:28:54;3.97;;;3.05;;
64789;SDS011;51223;51.816;5.862;2023-06-22T13:31:19;6.78;;;4.50;;
64789;SDS011;51223;51.816;5.862;2023-06-22T13:33:47;8.27;;;4.00;;
64789;SDS011;51223;51.816;5.862;2023-06-22T13:36:13;5.47;;;4.20;;
64789;SDS011;51223;51.816;5.862;2023-06-22T13:38:41;5.90;;;4.53;;
64789;SDS011;51223;51.816;5.862;2023-06-22T13:41:06;6.47;;;4.82;;
64789;SDS011;51223;51.816;5.862;2023-06-22T13:43:32;6.68;;;3.85;;
64789;SDS011;51223;51.816;5.862;2023-06-22T13:45:58;7.32;;;4.05;;
64789;SDS011;51223;51.816;5.862;2023-06-22T13:48:23;4.30;;;2.97;;
64789;SDS011;51223;51.816;5.862;2023-06-22T13:50:51;4.30;;;2.88;;
64789;SDS011;51223;51.816;5.862;2023-06-22T13:53:17;7.65;;;4.25;;
64789;SDS011;51223;51.816;5.862;2023-06-22T13:55:42;5.80;;;3.42;;
64789;SDS011;51223;51.816;5.862;2023-06-22T13:58:08;5.65;;;3.70;;
64789;SDS011;51223;51.816;5.862;2023-06-22T14:00:33;5.47;;;4.07;;
64789;SDS011;51223;51.816;5.862;2023-06-22T14:02:59;11.38;;;4.50;;
64789;SDS011;51223;51.816;5.862;2023-06-22T14:05:25;4.70;;;3.42;;
64789;SDS011;51223;51.816;5.862;2023-06-22T14:07:50;4.55;;;3.63;;
64789;SDS011;51223;51.816;5.862;2023-06-22T14:10:16;4.53;;;2.63;;
64789;SDS011;51223;51.816;5.862;2023-06-22T14:12:42;5.05;;;3.83;;
64789;SDS011;51223;51.816;5.862;2023-06-22T14:15:07;5.53;;;3.85;;
64789;SDS011;51223;51.816;5.862;2023-06-22T14:17:35;4.93;;;3.22;;
64789;SDS011;51223;51.816;5.862;2023-06-22T14:20:01;6.55;;;3.65;;
64789;SDS011;51223;51.816;5.862;2023-06-22T14:22:26;6.97;;;4.15;;
64789;SDS011;51223;51.816;5.862;2023-06-22T14:24:54;4.10;;;3.25;;
64789;SDS011;51223;51.816;5.862;2023-06-22T14:27:21;6.63;;;4.68;;
64789;SDS011;51223;51.816;5.862;2023-06-22T14:29:47;4.68;;;3.55;;
64789;SDS011;51223;51.816;5.862;2023-06-22T14:32:12;4.32;;;3.45;;
64789;SDS011;51223;51.816;5.862;2023-06-22T14:34:39;5.28;;;2.72;;
64789;SDS011;51223;51.816;5.862;2023-06-22T14:37:06;6.15;;;3.85;;
64789;SDS011;51223;51.816;5.862;2023-06-22T14:39:31;12.38;;;4.35;;
64789;SDS011;51223;51.816;5.862;2023-06-22T14:41:57;6.00;;;3.88;;
64789;SDS011;51223;51.816;5.862;2023-06-22T14:44:23;4.55;;;3.30;;
64789;SDS011;51223;51.816;5.862;2023-06-22T14:46:48;5.28;;;3.42;;
64789;SDS011;51223;51.816;5.862;2023-06-22T14:49:14;3.75;;;2.78;;
64789;SDS011;51223;51.816;5.862;2023-06-22T14:51:39;11.25;;;5.10;;
64789;SDS011;51223;51.816;5.862;2023-06-22T14:54:05;6.63;;;3.72;;
64789;SDS011;51223;51.816;5.862;2023-06-22T14:56:31;5.43;;;3.47;;
64789;SDS011;51223;51.816;5.862;2023-06-22T14:58:56;6.75;;;4.70;;
64789;SDS011;51223;51.816;5.862;2023-06-22T15:01:22;7.25;;;4.75;;
64789;SDS011;51223;51.816;5.862;2023-06-22T15:03:47;10.10;;;4.38;;
64789;SDS011;51223;51.816;5.862;2023-06-22T15:06:13;7.75;;;5.45;;
64789;SDS011;51223;51.816;5.862;2023-06-22T15:08:39;7.97;;;4.90;;
64789;SDS011;51223;51.816;5.862;2023-06-22T15:11:05;4.38;;;3.03;;
64789;SDS011;51223;51.816;5.862;2023-06-22T15:13:31;9.57;;;6.00;;
64789;SDS011;51223;51.816;5.862;2023-06-22T15:16:00;9.57;;;4.50;;
64789;SDS011;51223;51.816;5.862;2023-06-22T15:18:25;3.22;;;2.38;;
64789;SDS011;51223;51.816;5.862;2023-06-22T15:20:51;8.90;;;4.78;;
64789;SDS011;51223;51.816;5.862;2023-06-22T15:23:17;5.18;;;3.75;;
64789;SDS011;51223;51.816;5.862;2023-06-22T15:25:43;5.40;;;3.63;;
64789;SDS011;51223;51.816;5.862;2023-06-22T15:28:09;2.63;;;1.95;;
64789;SDS011;51223;51.816;5.862;2023-06-22T15:30:35;5.25;;;3.20;;
64789;SDS011;51223;51.816;5.862;2023-06-22T15:33:01;10.02;;;4.32;;
64789;SDS011;51223;51.816;5.862;2023-06-22T15:35:27;10.10;;;2.60;;
64789;SDS011;51223;51.816;5.862;2023-06-22T15:37:52;12.75;;;3.85;;
64789;SDS011;51223;51.816;5.862;2023-06-22T15:40:18;5.82;;;4.07;;
64789;SDS011;51223;51.816;5.862;2023-06-22T15:42:44;2.97;;;2.17;;
64789;SDS011;51223;51.816;5.862;2023-06-22T15:45:10;6.15;;;3.78;;
64789;SDS011;51223;51.816;5.862;2023-06-22T15:47:36;5.15;;;3.42;;
64789;SDS011;51223;51.816;5.862;2023-06-22T15:50:02;6.10;;;3.97;;
64789;SDS011;51223;51.816;5.862;2023-06-22T15:52:28;6.18;;;4.32;;
64789;SDS011;51223;51.816;5.862;2023-06-22T15:54:53;7.60;;;3.25;;
64789;SDS011;51223;51.816;5.862;2023-06-22T15:57:23;4.32;;;3.13;;
64789;SDS011;51223;51.816;5.862;2023-06-22T15:59:51;6.57;;;4.65;;
64789;SDS011;51223;51.816;5.862;2023-06-22T16:02:17;8.25;;;4.22;;
64789;SDS011;51223;51.816;5.862;2023-06-22T16:04:43;6.25;;;3.85;;
64789;SDS011;51223;51.816;5.862;2023-06-22T16:07:08;5.20;;;4.05;;
64789;SDS011;51223;51.816;5.862;2023-06-22T16:09:34;8.27;;;4.97;;
64789;SDS011;51223;51.816;5.862;2023-06-22T16:11:59;4.90;;;3.20;;
64789;SDS011;51223;51.816;5.862;2023-06-22T16:14:25;7.25;;;5.05;;
64789;SDS011;51223;51.816;5.862;2023-06-22T16:16:51;6.03;;;3.80;;
64789;SDS011;51223;51.816;5.862;2023-06-22T16:19:16;5.95;;;3.72;;
64789;SDS011;51223;51.816;5.862;2023-06-22T16:21:42;6.82;;;3.92;;
64789;SDS011;51223;51.816;5.862;2023-06-22T16:24:07;10.57;;;6.00;;
64789;SDS011;51223;51.816;5.862;2023-06-22T16:26:42;10.05;;;6.40;;
64789;SDS011;51223;51.816;5.862;2023-06-22T16:29:08;4.90;;;3.40;;
64789;SDS011;51223;51.816;5.862;2023-06-22T16:31:34;4.70;;;3.75;;
64789;SDS011;51223;51.816;5.862;2023-06-22T16:34:00;11.18;;;4.68;;
64789;SDS011;51223;51.816;5.862;2023-06-22T16:36:26;8.05;;;5.15;;
64789;SDS011;51223;51.816;5.862;2023-06-22T16:38:51;5.75;;;3.55;;
64789;SDS011;51223;51.816;5.862;2023-06-22T16:41:17;10.30;;;5.68;;
64789;SDS011;51223;51.816;5.862;2023-06-22T16:43:43;6.03;;;2.60;;
64789;SDS011;51223;51.816;5.862;2023-06-22T16:46:09;8.98;;;5.05;;
64789;SDS011;51223;51.816;5.862;2023-06-22T16:48:35;5.10;;;3.95;;
64789;SDS011;51223;51.816;5.862;2023-06-22T16:51:01;9.88;;;5.90;;
64789;SDS011;51223;51.816;5.862;2023-06-22T16:53:26;4.55;;;3.35;;
64789;SDS011;51223;51.816;5.862;2023-06-22T16:55:52;5.03;;;3.58;;
64789;SDS011;51223;51.816;5.862;2023-06-22T16:58:19;8.25;;;3.53;;
64789;SDS011;51223;51.816;5.862;2023-06-22T17:00:47;4.55;;;3.17;;
64789;SDS011;51223;51.816;5.862;2023-06-22T17:03:15;7.10;;;4.10;;
64789;SDS011;51223;51.816;5.862;2023-06-22T17:05:45;5.75;;;2.97;;
64789;SDS011;51223;51.816;5.862;2023-06-22T17:08:11;7.13;;;4.15;;
64789;SDS011;51223;51.816;5.862;2023-06-22T17:10:38;12.93;;;4.22;;
64789;SDS011;51223;51.816;5.862;2023-06-22T17:13:04;6.72;;;4.10;;
64789;SDS011;51223;51.816;5.862;2023-06-22T17:15:31;8.25;;;4.35;;
64789;SDS011;51223;51.816;5.862;2023-06-22T17:17:57;4.22;;;3.25;;
64789;SDS011;51223;51.816;5.862;2023-06-22T17:20:22;5.68;;;3.50;;
64789;SDS011;51223;51.816;5.862;2023-06-22T17:22:48;8.27;;;4.20;;
64789;SDS011;51223;51.816;5.862;2023-06-22T17:25:14;4.45;;;3.25;;
64789;SDS011;51223;51.816;5.862;2023-06-22T17:27:40;6.20;;;3.47;;
64789;SDS011;51223;51.816;5.862;2023-06-22T17:32:31;9.15;;;4.60;;
64789;SDS011;51223;51.816;5.862;2023-06-22T17:34:57;5.55;;;3.97;;
64789;SDS011;51223;51.816;5.862;2023-06-22T17:37:22;7.65;;;5.00;;
64789;SDS011;51223;51.816;5.862;2023-06-22T17:39:51;10.90;;;6.40;;
64789;SDS011;51223;51.816;5.862;2023-06-22T17:42:21;1.02;;;0.95;;
64789;SDS011;51223;51.816;5.862;2023-06-22T17:44:46;5.10;;;3.15;;
64789;SDS011;51223;51.816;5.862;2023-06-22T17:47:12;4.65;;;3.55;;
64789;SDS011;51223;51.816;5.862;2023-06-22T17:49:38;8.57;;;5.05;;
64789;SDS011;51223;51.816;5.862;2023-06-22T17:52:04;6.22;;;3.92;;
64789;SDS011;51223;51.816;5.862;2023-06-22T17:54:30;5.65;;;3.72;;
64789;SDS011;51223;51.816;5.862;2023-06-22T17:56:56;8.30;;;5.38;;
64789;SDS011;51223;51.816;5.862;2023-06-22T17:59:21;6.95;;;4.93;;
64789;SDS011;51223;51.816;5.862;2023-06-22T18:01:47;9.77;;;4.72;;
64789;SDS011;51223;51.816;5.862;2023-06-22T18:04:17;13.25;;;5.53;;
64789;SDS011;51223;51.816;5.862;2023-06-22T18:06:44;8.70;;;6.00;;
64789;SDS011;51223;51.816;5.862;2023-06-22T18:09:10;6.30;;;4.03;;
64789;SDS011;51223;51.816;5.862;2023-06-22T18:11:43;8.32;;;5.28;;
64789;SDS011;51223;51.816;5.862;2023-06-22T18:14:09;10.35;;;4.60;;
64789;SDS011;51223;51.816;5.862;2023-06-22T18:16:34;7.70;;;5.45;;
64789;SDS011;51223;51.816;5.862;2023-06-22T18:19:02;4.28;;;2.75;;
64789;SDS011;51223;51.816;5.862;2023-06-22T18:21:28;4.15;;;3.10;;
64789;SDS011;51223;51.816;5.862;2023-06-22T18:23:55;9.57;;;4.90;;
64789;SDS011;51223;51.816;5.862;2023-06-22T18:26:21;4.63;;;3.03;;
64789;SDS011;51223;51.816;5.862;2023-06-22T18:28:50;3.75;;;2.80;;
64789;SDS011;51223;51.816;5.862;2023-06-22T18:31:15;8.35;;;4.35;;
64789;SDS011;51223;51.816;5.862;2023-06-22T18:33:41;7.68;;;4.78;;
64789;SDS011;51223;51.816;5.862;2023-06-22T18:36:07;11.50;;;6.18;;
64789;SDS011;51223;51.816;5.862;2023-06-22T18:38:33;5.70;;;3.83;;
64789;SDS011;51223;51.816;5.862;2023-06-22T18:40:59;8.05;;;3.38;;
64789;SDS011;51223;51.816;5.862;2023-06-22T18:43:24;6.22;;;4.57;;
64789;SDS011;51223;51.816;5.862;2023-06-22T18:45:50;6.50;;;3.83;;
64789;SDS011;51223;51.816;5.862;2023-06-22T18:48:24;3.60;;;2.78;;
64789;SDS011;51223;51.816;5.862;2023-06-22T18:53:25;9.45;;;4.82;;
64789;SDS011;51223;51.816;5.862;2023-06-22T18:55:52;5.75;;;4.03;;
64789;SDS011;51223;51.816;5.862;2023-06-22T18:58:35;7.27;;;5.23;;
64789;SDS011;51223;51.816;5.862;2023-06-22T19:01:22;11.60;;;4.53;;
64789;SDS011;51223;51.816;5.862;2023-06-22T19:03:49;10.60;;;4.50;;
64789;SDS011;51223;51.816;5.862;2023-06-22T19:09:14;5.43;;;3.80;;
64789;SDS011;51223;51.816;5.862;2023-06-22T19:11:40;9.98;;;5.13;;
64789;SDS011;51223;51.816;5.862;2023-06-22T19:14:06;7.03;;;3.90;;
64789;SDS011;51223;51.816;5.862;2023-06-22T19:16:32;5.30;;;4.22;;
64789;SDS011;51223;51.816;5.862;2023-06-22T19:18:57;7.22;;;4.72;;
64789;SDS011;51223;51.816;5.862;2023-06-22T19:21:24;6.10;;;4.20;;
64789;SDS011;51223;51.816;5.862;2023-06-22T19:23:50;2.08;;;1.60;;
64789;SDS011;51223;51.816;5.862;2023-06-22T19:26:16;6.80;;;4.25;;
64789;SDS011;51223;51.816;5.862;2023-06-22T19:28:49;4.25;;;2.80;;
64789;SDS011;51223;51.816;5.862;2023-06-22T19:31:15;2.42;;;2.17;;
64789;SDS011;51223;51.816;5.862;2023-06-22T19:33:41;5.03;;;2.00;;
64789;SDS011;51223;51.816;5.862;2023-06-22T19:36:06;2.30;;;2.08;;
64789;SDS011;51223;51.816;5.862;2023-06-22T19:38:32;2.28;;;1.75;;
64789;SDS011;51223;51.816;5.862;2023-06-22T19:40:59;4.97;;;2.72;;
64789;SDS011;51223;51.816;5.862;2023-06-22T19:43:28;3.53;;;2.28;;
64789;SDS011;51223;51.816;5.862;2023-06-22T19:45:54;5.45;;;3.95;;
64789;SDS011;51223;51.816;5.862;2023-06-22T19:48:23;6.90;;;3.47;;
64789;SDS011;51223;51.816;5.862;2023-06-22T19:50:49;7.45;;;3.55;;
64789;SDS011;51223;51.816;5.862;2023-06-22T19:53:15;3.33;;;2.35;;
64789;SDS011;51223;51.816;5.862;2023-06-22T19:55:44;6.43;;;4.18;;
64789;SDS011;51223;51.816;5.862;2023-06-22T19:58:10;4.05;;;2.95;;
64789;SDS011;51223;51.816;5.862;2023-06-22T20:00:36;4.03;;;2.60;;
64789;SDS011;51223;51.816;5.862;2023-06-22T20:03:02;5.13;;;2.95;;
64789;SDS011;51223;51.816;5.862;2023-06-22T20:05:28;3.63;;;2.60;;
64789;SDS011;51223;51.816;5.862;2023-06-22T20:07:54;7.70;;;3.70;;
64789;SDS011;51223;51.816;5.862;2023-06-22T20:10:20;5.45;;;3.08;;
64789;SDS011;51223;51.816;5.862;2023-06-22T20:12:49;6.40;;;3.28;;
64789;SDS011;51223;51.816;5.862;2023-06-22T20:17:44;3.63;;;1.88;;
64789;SDS011;51223;51.816;5.862;2023-06-22T20:20:22;3.95;;;1.98;;
64789;SDS011;51223;51.816;5.862;2023-06-22T20:22:48;4.80;;;2.88;;
64789;SDS011;51223;51.816;5.862;2023-06-22T20:25:23;4.60;;;3.22;;
64789;SDS011;51223;51.816;5.862;2023-06-22T20:27:49;5.95;;;3.00;;
64789;SDS011;51223;51.816;5.862;2023-06-22T20:30:16;2.60;;;2.00;;
64789;SDS011;51223;51.816;5.862;2023-06-22T20:35:14;3.10;;;1.27;;
64789;SDS011;51223;51.816;5.862;2023-06-22T20:37:40;4.43;;;2.45;;
64789;SDS011;51223;51.816;5.862;2023-06-22T20:40:07;5.28;;;3.55;;
64789;SDS011;51223;51.816;5.862;2023-06-22T20:42:34;4.55;;;2.53;;
64789;SDS011;51223;51.816;5.862;2023-06-22T20:45:03;2.05;;;1.27;;
64789;SDS011;51223;51.816;5.862;2023-06-22T20:47:28;5.28;;;2.88;;
64789;SDS011;51223;51.816;5.862;2023-06-22T20:49:54;3.80;;;2.28;;
64789;SDS011;51223;51.816;5.862;2023-06-22T20:52:25;4.68;;;2.30;;
64789;SDS011;51223;51.816;5.862;2023-06-22T20:54:51;4.07;;;1.95;;
64789;SDS011;51223;51.816;5.862;2023-06-22T20:57:18;3.25;;;1.73;;
64789;SDS011;51223;51.816;5.862;2023-06-22T20:59:43;2.15;;;1.15;;
64789;SDS011;51223;51.816;5.862;2023-06-22T21:02:09;2.20;;;1.85;;
64789;SDS011;51223;51.816;5.862;2023-06-22T21:04:35;2.47;;;1.45;;
64789;SDS011;51223;51.816;5.862;2023-06-22T21:07:00;3.83;;;1.42;;
64789;SDS011;51223;51.816;5.862;2023-06-22T21:09:26;1.83;;;1.25;;
64789;SDS011;51223;51.816;5.862;2023-06-22T21:11:52;2.35;;;1.40;;
64789;SDS011;51223;51.816;5.862;2023-06-22T21:14:18;0.90;;;0.82;;
64789;SDS011;51223;51.816;5.862;2023-06-22T21:16:44;2.78;;;1.38;;
64789;SDS011;51223;51.816;5.862;2023-06-22T21:19:09;1.98;;;1.38;;
64789;SDS011;51223;51.816;5.862;2023-06-22T21:21:35;2.35;;;1.65;;
64789;SDS011;51223;51.816;5.862;2023-06-22T21:24:01;2.90;;;1.45;;
64789;SDS011;51223;51.816;5.862;2023-06-22T21:26:27;2.00;;;1.45;;
64789;SDS011;51223;51.816;5.862;2023-06-22T21:28:52;1.73;;;1.08;;
64789;SDS011;51223;51.816;5.862;2023-06-22T21:31:18;1.23;;;1.13;;
64789;SDS011;51223;51.816;5.862;2023-06-22T21:33:43;6.47;;;1.50;;
64789;SDS011;51223;51.816;5.862;2023-06-22T21:36:10;2.08;;;1.58;;
64789;SDS011;51223;51.816;5.862;2023-06-22T21:38:36;5.45;;;1.95;;
64789;SDS011;51223;51.816;5.862;2023-06-22T21:41:01;5.00;;;1.70;;
64789;SDS011;51223;51.816;5.862;2023-06-22T21:43:27;1.55;;;0.98;;
64789;SDS011;51223;51.816;5.862;2023-06-22T21:45:52;1.30;;;1.10;;
64789;SDS011;51223;51.816;5.862;2023-06-22T21:48:18;3.67;;;1.52;;
64789;SDS011;51223;51.816;5.862;2023-06-22T21:50:47;0.60;;;0.50;;